createdAt,value
2023-01-04T00:00:22.365Z,40.50
2023-01-04T00:03:11.844Z,42.33
2023-01-04T00:05:41.377Z,43.30
2023-01-04T00:08:10.882Z,41.65
2023-01-04T00:10:42.304Z,43.40
2023-01-04T00:13:11.667Z,41.40
2023-01-04T00:15:40.947Z,48.80
2023-01-04T00:18:10.283Z,47.37
2023-01-04T00:20:39.930Z,45.65
2023-01-04T00:23:09.143Z,46.80
2023-01-04T00:25:39.087Z,47.83
2023-01-04T00:28:08.480Z,48.35
2023-01-04T00:30:37.787Z,50.40
2023-01-04T00:33:07.138Z,44.40
2023-01-04T00:35:45.713Z,47.00
2023-01-04T00:38:15.596Z,47.20
2023-01-04T00:40:44.938Z,46.05
2023-01-04T00:43:14.563Z,46.80
2023-01-04T00:45:44.234Z,42.83
2023-01-04T00:48:13.801Z,44.95
2023-01-04T00:50:44.111Z,42.65
2023-01-04T00:53:14.002Z,45.70
2023-01-04T00:55:43.595Z,44.15
2023-01-04T00:58:12.973Z,43.65
2023-01-04T01:00:42.191Z,55.85
2023-01-04T01:03:11.728Z,50.60
2023-01-04T01:05:41.409Z,48.85
2023-01-04T01:08:26.379Z,47.20
2023-01-04T01:10:55.839Z,43.90
2023-01-04T01:13:25.281Z,43.15
2023-01-04T01:15:54.683Z,47.45
2023-01-04T01:18:24.113Z,48.35
2023-01-04T01:20:53.490Z,46.70
2023-01-04T01:23:22.715Z,46.33
2023-01-04T01:25:52.090Z,49.20
2023-01-04T01:28:21.397Z,45.67
2023-01-04T01:30:50.702Z,51.15
2023-01-04T01:33:20.155Z,51.95
2023-01-04T01:35:49.499Z,44.70
2023-01-04T01:38:20.075Z,42.85
2023-01-04T01:40:50.644Z,46.75
2023-01-04T01:43:21.575Z,45.05
2023-01-04T01:45:51.667Z,42.80
2023-01-04T01:48:22.454Z,54.00
2023-01-04T01:50:53.826Z,50.05
2023-01-04T01:53:25.405Z,55.60
2023-01-04T01:55:56.791Z,48.92
2023-01-04T01:58:27.492Z,48.67
2023-01-04T02:00:57.469Z,48.20
2023-01-04T02:03:30.159Z,51.10
2023-01-04T02:06:00.228Z,48.60
2023-01-04T02:08:31.223Z,52.53
2023-01-04T02:11:00.578Z,53.13
2023-01-04T02:13:45.328Z,52.90
2023-01-04T02:16:16.980Z,47.45
2023-01-04T02:18:48.850Z,47.20
2023-01-04T02:21:21.953Z,54.05
2023-01-04T02:24:08.559Z,52.00
2023-01-04T02:26:55.435Z,52.40
2023-01-04T02:29:39.643Z,48.90
2023-01-04T02:32:12.162Z,48.40
2023-01-04T02:34:45.563Z,49.40
2023-01-04T02:37:18.888Z,51.50
2023-01-04T02:39:53.177Z,51.30
2023-01-04T02:42:46.981Z,49.45
2023-01-04T02:45:24.800Z,51.60
2023-01-04T02:48:17.867Z,53.03
2023-01-04T02:50:51.880Z,51.43
2023-01-04T02:53:22.826Z,56.50
2023-01-04T02:55:55.332Z,52.85
2023-01-04T02:58:32.777Z,56.05
2023-01-04T03:01:21.782Z,58.20
2023-01-04T03:04:17.536Z,57.00
2023-01-04T03:06:51.279Z,54.35
2023-01-04T03:09:23.327Z,57.35
2023-01-04T03:12:13.677Z,55.67
2023-01-04T03:14:45.465Z,54.70
2023-01-04T03:17:16.439Z,55.65
2023-01-04T03:19:56.834Z,55.40
2023-01-04T03:22:48.386Z,57.50
2023-01-04T03:25:37.304Z,58.50
2023-01-04T03:28:25.999Z,56.00
2023-01-04T03:31:16.507Z,58.23
2023-01-04T03:34:04.226Z,58.05
2023-01-04T03:36:38.232Z,55.67
2023-01-04T03:39:28.177Z,52.55
2023-01-04T03:42:18.355Z,54.35
2023-01-04T03:45:11.236Z,53.90
2023-01-04T03:48:00.786Z,55.90
2023-01-04T03:50:33.159Z,57.57
2023-01-04T03:55:31.379Z,55.15
2023-01-04T03:58:01.062Z,56.73
2023-01-04T04:00:30.972Z,58.10
2023-01-04T04:03:06.687Z,55.30
2023-01-04T04:05:55.894Z,64.70
2023-01-04T04:08:26.742Z,61.17
2023-01-04T04:10:57.236Z,55.25
2023-01-04T04:13:26.459Z,55.85
2023-01-04T04:15:56.191Z,55.45
2023-01-04T04:18:25.782Z,53.40
2023-01-04T04:20:58.006Z,55.55
2023-01-04T04:23:27.238Z,56.13
2023-01-04T04:25:56.530Z,53.35
2023-01-04T04:28:26.045Z,57.10
2023-01-04T04:30:56.101Z,58.03
2023-01-04T04:33:25.482Z,55.40
2023-01-04T04:35:55.257Z,56.65
2023-01-04T04:38:24.631Z,54.10
2023-01-04T04:41:12.478Z,53.70
2023-01-04T04:43:41.810Z,55.27
2023-01-04T04:46:11.059Z,54.23
2023-01-04T04:48:40.675Z,52.20
2023-01-04T04:51:09.951Z,52.70
2023-01-04T04:53:39.279Z,54.00
2023-01-04T04:56:08.945Z,50.65
2023-01-04T04:58:38.618Z,52.25
2023-01-04T05:03:39.380Z,52.90
2023-01-04T05:06:08.714Z,54.80
2023-01-04T05:08:37.969Z,53.83
2023-01-04T05:11:08.144Z,52.60
2023-01-04T05:13:37.919Z,55.47
2023-01-04T05:16:08.381Z,54.33
2023-01-04T05:18:37.885Z,55.20
2023-01-04T05:21:07.224Z,57.57
2023-01-04T05:23:36.859Z,58.33
2023-01-04T05:26:06.463Z,61.33
2023-01-04T05:28:35.820Z,59.50
2023-01-04T05:31:05.447Z,57.50
2023-01-04T05:33:36.987Z,58.37
2023-01-04T05:36:06.842Z,59.33
2023-01-04T05:38:36.150Z,56.47
2023-01-04T05:41:26.120Z,54.47
2023-01-04T05:43:56.045Z,52.17
2023-01-04T05:46:25.477Z,54.55
2023-01-04T05:48:54.849Z,61.25
2023-01-04T05:51:24.431Z,57.95
2023-01-04T05:53:53.735Z,59.30
2023-01-04T05:56:23.059Z,62.47
2023-01-04T05:58:52.741Z,56.80
2023-01-04T06:01:22.268Z,56.93
2023-01-04T06:03:51.833Z,51.90
2023-01-04T06:06:21.310Z,58.15
2023-01-04T06:08:50.627Z,55.67
2023-01-04T06:11:25.599Z,56.17
2023-01-04T06:13:56.916Z,53.33
2023-01-04T06:16:26.824Z,55.43
2023-01-04T06:18:56.258Z,58.67
2023-01-04T06:21:25.822Z,56.85
2023-01-04T06:23:55.179Z,55.77
2023-01-04T06:26:24.470Z,57.60
2023-01-04T06:28:53.975Z,57.50
2023-01-04T06:31:23.206Z,56.07
2023-01-04T06:33:52.705Z,57.30
2023-01-04T06:36:21.988Z,60.60
2023-01-04T06:38:51.442Z,55.83
2023-01-04T06:41:20.966Z,58.07
2023-01-04T06:43:50.679Z,60.23
2023-01-04T06:46:20.477Z,55.50
2023-01-04T06:48:53.092Z,59.87
2023-01-04T06:51:22.711Z,58.30
2023-01-04T06:53:52.248Z,58.50
2023-01-04T06:56:22.617Z,61.57
2023-01-04T06:58:52.121Z,59.73
2023-01-04T07:01:21.683Z,57.25
2023-01-04T07:03:51.425Z,59.35
2023-01-04T07:06:23.911Z,56.60
2023-01-04T07:08:56.087Z,61.23
2023-01-04T07:11:25.538Z,55.87
2023-01-04T07:13:55.080Z,60.10
2023-01-04T07:16:24.486Z,60.07
2023-01-04T07:18:54.566Z,61.07
2023-01-04T07:21:25.379Z,62.10
2023-01-04T07:23:57.226Z,61.43
2023-01-04T07:26:26.933Z,58.52
2023-01-04T07:29:16.453Z,62.97
2023-01-04T07:31:47.170Z,60.13
2023-01-04T07:34:17.855Z,56.10
2023-01-04T07:36:47.472Z,57.53
2023-01-04T07:39:18.822Z,54.93
2023-01-04T07:41:48.967Z,56.53
2023-01-04T07:44:24.946Z,45.93
2023-01-04T07:46:54.673Z,47.30
2023-01-04T07:49:25.144Z,44.55
2023-01-04T07:51:54.862Z,41.30
2023-01-04T07:54:26.890Z,46.42
2023-01-04T07:56:56.496Z,43.27
2023-01-04T07:59:26.102Z,47.23
2023-01-04T08:01:59.124Z,39.90
2023-01-04T08:04:34.664Z,39.92
2023-01-04T08:07:05.875Z,30.40
2023-01-04T08:09:35.487Z,84.73
2023-01-04T08:12:05.646Z,60.00
2023-01-04T08:14:35.149Z,41.00
2023-01-04T08:17:04.834Z,37.03
2023-01-04T08:19:34.800Z,24.53
2023-01-04T08:22:04.191Z,25.07
2023-01-04T08:24:35.167Z,23.00
2023-01-04T08:27:06.097Z,38.67
2023-01-04T08:29:35.800Z,33.18
2023-01-04T08:32:08.039Z,26.68
2023-01-04T08:34:37.431Z,36.42
2023-01-04T08:37:07.002Z,38.13
2023-01-04T08:39:36.779Z,28.23
2023-01-04T08:42:19.466Z,24.43
2023-01-04T08:44:59.181Z,23.65
2023-01-04T08:47:31.196Z,21.90
2023-01-04T08:50:06.386Z,24.72
2023-01-04T08:52:39.976Z,22.73
2023-01-04T08:55:13.169Z,19.62
2023-01-04T08:57:43.657Z,20.73
2023-01-04T09:00:14.577Z,21.70
2023-01-04T09:02:44.332Z,21.17
2023-01-04T09:05:22.212Z,20.57
2023-01-04T09:07:52.613Z,19.40
2023-01-04T09:10:21.935Z,17.77
2023-01-04T09:12:51.452Z,17.90
2023-01-04T09:15:21.240Z,19.32
2023-01-04T09:18:29.289Z,17.55
2023-01-04T09:20:41.874Z,18.00
2023-01-04T09:23:11.523Z,16.02
2023-01-04T09:25:41.110Z,16.65
2023-01-04T09:28:10.791Z,16.70
2023-01-04T09:30:40.738Z,16.62
2023-01-04T09:33:10.176Z,13.65
2023-01-04T09:35:40.503Z,13.80
2023-01-04T09:38:10.214Z,15.30
2023-01-04T09:40:44.821Z,14.07
2023-01-04T09:43:21.350Z,12.73
2023-01-04T09:45:54.390Z,12.65
2023-01-04T09:48:26.847Z,12.03
2023-01-04T09:50:58.169Z,13.00
2023-01-04T09:53:31.545Z,11.20
2023-01-04T09:56:07.487Z,12.00
2023-01-04T09:58:42.213Z,12.47
2023-01-04T10:01:14.675Z,12.82
2023-01-04T10:06:17.609Z,11.55
2023-01-04T10:08:47.858Z,13.48
2023-01-04T10:11:24.424Z,13.35
2023-01-04T10:14:04.370Z,11.90
2023-01-04T10:17:12.221Z,12.53
2023-01-04T10:22:28.751Z,12.33
2023-01-04T10:25:02.742Z,12.80
2023-01-04T10:27:42.372Z,13.50
2023-01-04T10:30:22.016Z,13.68
2023-01-04T10:32:58.589Z,14.73
2023-01-04T10:35:28.376Z,13.65
2023-01-04T10:37:59.067Z,11.50
2023-01-04T10:40:29.365Z,13.53
2023-01-04T10:43:02.361Z,11.22
2023-01-04T10:45:35.984Z,11.22
2023-01-04T10:48:08.592Z,9.83
2023-01-04T10:50:43.434Z,11.18
2023-01-04T10:53:16.204Z,10.93
2023-01-04T10:56:25.482Z,11.28
2023-01-04T10:58:41.566Z,9.90
2023-01-04T11:01:12.864Z,11.10
2023-01-04T11:03:47.546Z,12.35
2023-01-04T11:06:20.560Z,10.60
2023-01-04T11:08:53.152Z,15.32
2023-01-04T11:11:25.005Z,11.12
2023-01-04T11:13:54.501Z,15.43
2023-01-04T11:16:24.139Z,11.20
2023-01-04T11:18:53.550Z,11.55
2023-01-04T11:21:27.113Z,10.85
2023-01-04T11:24:08.318Z,10.80
2023-01-04T11:26:48.464Z,13.35
2023-01-04T11:29:28.651Z,9.75
2023-01-04T11:32:03.057Z,10.98
2023-01-04T11:34:47.570Z,11.18
2023-01-04T11:37:28.056Z,11.27
2023-01-04T11:40:21.578Z,10.20
2023-01-04T11:42:52.304Z,10.78
2023-01-04T11:45:23.520Z,11.73
2023-01-04T11:47:54.088Z,12.17
2023-01-04T11:50:41.361Z,12.58
2023-01-04T11:53:24.769Z,12.85
2023-01-04T11:56:07.812Z,11.08
2023-01-04T11:58:37.294Z,10.30
2023-01-04T12:01:10.027Z,9.98
2023-01-04T12:03:40.410Z,11.08
2023-01-04T12:06:13.876Z,11.20
2023-01-04T12:08:43.309Z,10.95
2023-01-04T12:11:19.333Z,11.33
2023-01-04T12:13:48.828Z,9.85
2023-01-04T12:16:21.613Z,13.28
2023-01-04T12:18:51.431Z,11.35
2023-01-04T12:21:22.363Z,11.68
2023-01-04T12:23:52.404Z,9.50
2023-01-04T12:26:22.824Z,12.25
2023-01-04T12:29:12.227Z,9.58
2023-01-04T12:31:41.609Z,14.53
2023-01-04T12:34:29.147Z,10.35
2023-01-04T12:37:04.807Z,12.37
2023-01-04T12:39:41.307Z,11.78
2023-01-04T12:42:20.577Z,12.95
2023-01-04T12:45:22.542Z,13.83
2023-01-04T12:48:12.110Z,12.23
2023-01-04T12:51:14.608Z,12.95
2023-01-04T12:53:50.162Z,12.53
2023-01-04T12:56:19.660Z,12.58
2023-01-04T13:02:13.739Z,13.38
2023-01-04T13:04:43.477Z,12.78
2023-01-04T13:07:17.030Z,13.22
2023-01-04T13:09:52.788Z,12.37
2023-01-04T13:12:35.762Z,13.53
2023-01-04T13:15:07.271Z,13.40
2023-01-04T13:17:38.811Z,15.13
2023-01-04T13:20:16.895Z,12.65
2023-01-04T13:22:49.426Z,14.80
2023-01-04T13:25:21.880Z,13.58
2023-01-04T13:27:55.949Z,15.38
2023-01-04T13:30:30.601Z,15.13
2023-01-04T13:36:03.802Z,14.45
2023-01-04T13:38:34.654Z,16.40
2023-01-04T13:41:07.042Z,13.58
2023-01-04T13:46:13.447Z,14.15
2023-01-04T13:48:44.273Z,15.32
2023-01-04T13:51:15.566Z,14.20
2023-01-04T13:53:53.120Z,12.80
2023-01-04T13:56:24.755Z,13.77
2023-01-04T13:58:54.291Z,16.87
2023-01-04T14:01:25.096Z,14.85
2023-01-04T14:03:55.765Z,15.38
2023-01-04T14:06:27.769Z,15.60
2023-01-04T14:08:59.563Z,14.28
2023-01-04T14:12:06.229Z,15.68
2023-01-04T14:14:39.214Z,17.90
2023-01-04T14:17:15.767Z,16.60
2023-01-04T14:19:46.637Z,16.32
2023-01-04T14:22:24.481Z,16.23
2023-01-04T14:25:10.525Z,14.23
2023-01-04T14:27:43.408Z,15.00
2023-01-04T14:30:29.843Z,14.03
2023-01-04T14:33:00.292Z,17.27
2023-01-04T14:35:30.272Z,15.53
2023-01-04T14:38:03.160Z,15.45
2023-01-04T14:40:32.605Z,16.23
2023-01-04T14:43:02.137Z,15.13
2023-01-04T14:45:31.423Z,13.32
2023-01-04T14:48:00.861Z,14.55
2023-01-04T14:50:30.552Z,16.50
2023-01-04T14:53:00.005Z,17.50
2023-01-04T14:55:30.615Z,14.65
2023-01-04T14:58:00.217Z,13.78
2023-01-04T15:00:29.851Z,14.55
2023-01-04T15:02:59.802Z,16.02
2023-01-04T15:05:32.865Z,13.68
2023-01-04T15:08:04.013Z,15.95
2023-01-04T15:11:09.612Z,14.10
2023-01-04T15:13:39.932Z,60.43
2023-01-04T15:16:12.068Z,24.35
2023-01-04T15:18:50.492Z,19.48
2023-01-04T15:21:19.882Z,19.15
2023-01-04T15:23:49.184Z,17.82
2023-01-04T15:26:18.792Z,16.70
2023-01-04T15:28:48.017Z,17.50
2023-01-04T15:31:22.388Z,20.62
2023-01-04T15:33:55.291Z,20.40
2023-01-04T15:36:25.040Z,20.05
2023-01-04T15:38:55.188Z,23.10
2023-01-04T15:41:43.093Z,19.97
2023-01-04T15:44:12.757Z,23.27
2023-01-04T15:46:42.176Z,22.63
2023-01-04T15:49:16.854Z,20.10
2023-01-04T15:51:49.160Z,19.32
2023-01-04T15:54:21.002Z,23.67
2023-01-04T15:56:50.546Z,20.08
2023-01-04T15:59:20.415Z,19.70
2023-01-04T16:01:49.909Z,21.93
2023-01-04T16:04:19.411Z,17.90
2023-01-04T16:06:48.839Z,18.27
2023-01-04T16:09:18.295Z,18.67
2023-01-04T16:12:05.554Z,16.57
2023-01-04T16:14:36.027Z,17.92
2023-01-04T16:17:05.564Z,19.73
2023-01-04T16:19:35.209Z,17.53
2023-01-04T16:22:04.689Z,18.32
2023-01-04T16:27:23.563Z,18.07
2023-01-04T16:29:53.679Z,15.88
2023-01-04T16:32:23.383Z,16.35
2023-01-04T16:34:53.080Z,17.60
2023-01-04T16:37:25.958Z,13.75
2023-01-04T16:40:10.848Z,16.53
2023-01-04T16:42:40.458Z,20.55
2023-01-04T16:45:10.746Z,21.45
2023-01-04T16:47:41.603Z,26.00
2023-01-04T16:50:11.868Z,29.90
2023-01-04T16:52:41.309Z,29.63
2023-01-04T16:55:10.957Z,29.67
2023-01-04T16:57:41.168Z,30.07
2023-01-04T17:00:11.613Z,31.40
2023-01-04T17:02:41.107Z,32.53
2023-01-04T17:05:10.657Z,33.60
2023-01-04T17:07:40.431Z,38.03
2023-01-04T17:10:10.421Z,38.27
2023-01-04T17:12:49.210Z,36.33
2023-01-04T17:18:12.408Z,36.07
2023-01-04T17:20:41.804Z,44.40
2023-01-04T17:23:11.165Z,40.20
2023-01-04T17:25:40.606Z,40.87
2023-01-04T17:28:10.159Z,42.47
2023-01-04T17:30:39.691Z,44.23
2023-01-04T17:33:09.143Z,47.37
2023-01-04T17:35:39.401Z,46.33
2023-01-04T17:38:09.011Z,50.70
2023-01-04T17:40:38.474Z,48.80
2023-01-04T17:43:08.144Z,44.55
2023-01-04T17:45:56.070Z,47.55
2023-01-04T17:48:25.617Z,42.93
2023-01-04T17:50:54.999Z,40.50
2023-01-04T17:53:24.544Z,43.90
2023-01-04T17:58:23.978Z,41.17
2023-01-04T18:00:53.225Z,48.93
2023-01-04T18:03:22.900Z,48.50
2023-01-04T18:06:07.062Z,45.53
2023-01-04T18:08:44.266Z,51.87
2023-01-04T18:11:13.733Z,45.60
2023-01-04T18:13:44.732Z,43.00
2023-01-04T18:16:30.305Z,42.70
2023-01-04T18:19:00.516Z,95.00
2023-01-04T18:21:31.184Z,79.20
2023-01-04T18:24:34.687Z,75.40
2023-01-04T18:29:41.626Z,65.27
2023-01-04T18:32:11.178Z,82.20
2023-01-04T18:34:40.532Z,95.15
2023-01-04T18:37:10.247Z,89.00
2023-01-04T18:39:39.891Z,93.05
2023-01-04T18:42:10.005Z,93.25
2023-01-04T18:44:44.197Z,91.03
2023-01-04T18:47:17.827Z,95.35
2023-01-04T18:49:48.195Z,89.70
2023-01-04T18:52:18.491Z,95.10
2023-01-04T18:54:48.142Z,87.30
2023-01-04T18:59:51.135Z,79.40
2023-01-04T19:02:21.078Z,75.85
2023-01-04T19:04:53.245Z,69.25
2023-01-04T19:07:23.193Z,67.45
2023-01-04T19:09:53.423Z,65.90
2023-01-04T19:12:22.661Z,61.50
2023-01-04T19:14:52.212Z,57.75
2023-01-04T19:17:23.900Z,64.30
2023-01-04T19:19:53.542Z,68.05
2023-01-04T19:22:22.821Z,72.85
2023-01-04T19:24:52.157Z,72.00
2023-01-04T19:27:21.943Z,68.63
2023-01-04T19:29:52.877Z,64.20
2023-01-04T19:32:22.312Z,62.30
2023-01-04T19:34:51.828Z,59.65
2023-01-04T19:37:23.469Z,61.10
2023-01-04T19:39:54.122Z,57.45
2023-01-04T19:42:23.765Z,58.75
2023-01-04T19:44:58.263Z,54.60
2023-01-04T19:47:48.045Z,59.15
2023-01-04T19:50:17.885Z,56.75
2023-01-04T19:52:54.012Z,64.75
2023-01-04T19:55:29.026Z,68.65
2023-01-04T19:57:58.824Z,77.13
2023-01-04T20:00:28.211Z,74.30
2023-01-04T20:02:57.771Z,65.60
2023-01-04T20:05:27.262Z,61.53
2023-01-04T20:07:56.743Z,62.70
2023-01-04T20:10:26.130Z,65.10
2023-01-04T20:12:56.452Z,61.85
2023-01-04T20:15:25.952Z,56.10
2023-01-04T20:17:55.301Z,52.20
2023-01-04T20:20:25.117Z,54.07
2023-01-04T20:22:54.645Z,50.55
2023-01-04T20:25:24.561Z,60.10
2023-01-04T20:27:53.941Z,71.30
2023-01-04T20:30:23.572Z,62.50
2023-01-04T20:32:53.050Z,66.20
2023-01-04T20:35:24.393Z,66.27
2023-01-04T20:37:56.297Z,58.80
2023-01-04T20:40:27.013Z,52.65
2023-01-04T20:43:15.064Z,55.65
2023-01-04T20:45:45.325Z,54.45
2023-01-04T20:48:18.147Z,58.55
2023-01-04T20:50:47.751Z,60.25
2023-01-04T20:53:17.263Z,57.55
2023-01-04T20:55:46.680Z,60.30
2023-01-04T20:58:16.499Z,62.55
2023-01-04T21:00:47.141Z,59.70
2023-01-04T21:03:16.871Z,58.55
2023-01-04T21:05:46.887Z,55.77
2023-01-04T21:08:17.287Z,53.80
2023-01-04T21:10:47.092Z,58.85
2023-01-04T21:13:16.395Z,59.35
2023-01-04T21:15:45.990Z,52.87
2023-01-04T21:18:15.731Z,50.10
2023-01-04T21:20:46.354Z,54.90
2023-01-04T21:23:17.170Z,60.20
2023-01-04T21:25:48.895Z,68.50
2023-01-04T21:28:20.423Z,71.45
2023-01-04T21:30:51.287Z,70.17
2023-01-04T21:33:20.861Z,74.80
2023-01-04T21:35:50.458Z,68.10
2023-01-04T21:38:19.873Z,68.40
2023-01-04T21:40:49.593Z,67.20
2023-01-04T21:43:36.784Z,62.70
2023-01-04T21:46:08.565Z,60.70
2023-01-04T21:48:37.994Z,65.32
2023-01-04T21:51:07.992Z,63.20
2023-01-04T21:53:37.738Z,67.45
2023-01-04T21:56:09.188Z,69.90
2023-01-04T21:58:39.293Z,69.17
2023-01-04T22:01:09.602Z,75.70
2023-01-04T22:03:39.173Z,71.55
2023-01-04T22:06:08.857Z,70.37
2023-01-04T22:08:38.517Z,72.23
2023-01-04T22:11:08.208Z,74.05
2023-01-04T22:13:38.435Z,69.95
2023-01-04T22:16:08.769Z,67.35
2023-01-04T22:18:39.302Z,72.85
2023-01-04T22:21:11.566Z,71.60
2023-01-04T22:26:09.801Z,69.60
2023-01-04T22:28:39.892Z,69.55
2023-01-04T22:31:10.891Z,70.70
2023-01-04T22:33:41.121Z,71.90
2023-01-04T22:36:19.039Z,67.80
2023-01-04T22:38:53.439Z,67.90
2023-01-04T22:41:23.963Z,64.97
2023-01-04T22:43:58.208Z,67.90
2023-01-04T22:46:28.352Z,66.90
2023-01-04T22:48:58.722Z,63.75
2023-01-04T22:51:29.302Z,59.45
2023-01-04T22:54:00.119Z,57.35
2023-01-04T22:56:29.866Z,63.85
2023-01-04T22:58:59.452Z,56.90
2023-01-04T23:01:30.165Z,55.90
2023-01-04T23:04:00.357Z,53.95
2023-01-04T23:06:30.432Z,53.90
2023-01-04T23:09:00.566Z,51.10
2023-01-04T23:11:30.879Z,51.37
2023-01-04T23:14:04.061Z,52.25
2023-01-04T23:16:33.925Z,45.00
2023-01-04T23:19:04.541Z,46.05
2023-01-04T23:21:34.755Z,43.20
2023-01-04T23:24:04.712Z,43.75
2023-01-04T23:26:34.197Z,41.50
2023-01-04T23:29:03.995Z,43.40
2023-01-04T23:31:33.775Z,46.25
2023-01-04T23:34:04.799Z,47.70
2023-01-04T23:36:34.625Z,44.90
2023-01-04T23:39:05.388Z,46.13
2023-01-04T23:41:47.701Z,43.25
2023-01-04T23:44:18.975Z,48.58
2023-01-04T23:46:51.586Z,45.65
2023-01-04T23:49:21.376Z,48.90
2023-01-04T23:51:51.320Z,46.30
2023-01-04T23:54:20.961Z,47.70
2023-01-04T23:56:50.256Z,47.95
2023-01-04T23:59:20.312Z,48.17
